Time;durP1;ratioP1;P1;durP2;ratioP2;P2;SDS_P1;SDS_P2;PMS_P1;PMS_P2;Temp;Humidity;BMP_temperature;BMP_pressure;BME280_temperature;BME280_humidity;BME280_pressure;Samples;Min_cycle;Max_cycle;Signal;HPM_P1;HPM_P2
2022/07/24 00:01:47;;;;;;;15.57;9.50;;;;;;;26.95;42.06;99353.91;5081604;28;20414;-72
2022/07/24 00:04:13;;;;;;;20.25;10.27;;;;;;;26.85;42.00;99346.34;5092539;28;20119;-73
2022/07/24 00:06:38;;;;;;;21.60;11.02;;;;;;;26.82;42.23;99341.53;5118462;27;20030;-72
2022/07/24 00:09:05;;;;;;;18.52;10.57;;;;;;;26.68;42.58;99337.78;5133555;27;20062;-72
2022/07/24 00:11:30;;;;;;;21.13;10.30;;;;;;;26.74;42.97;99349.53;5129431;27;20073;-73
2022/07/24 00:13:56;;;;;;;25.65;9.85;;;;;;;26.76;42.74;99356.41;5094563;28;20452;-72
2022/07/24 00:16:22;;;;;;;29.52;11.35;;;;;;;26.76;42.49;99355.59;5127542;27;20031;-72
2022/07/24 00:18:47;;;;;;;19.67;10.30;;;;;;;26.77;42.44;99363.75;5112779;28;20502;-72
2022/07/24 00:21:13;;;;;;;20.77;10.57;;;;;;;26.74;42.64;99361.78;5112605;28;20501;-72
2022/07/24 00:23:38;;;;;;;26.48;10.00;;;;;;;26.59;42.64;99349.88;5094292;28;20089;-72
2022/07/24 00:26:04;;;;;;;21.70;10.27;;;;;;;26.32;43.42;99362.41;5105392;27;20102;-72
2022/07/24 00:28:30;;;;;;;28.85;12.15;;;;;;;25.64;44.34;99365.53;5114628;27;20122;-73
2022/07/24 00:30:56;;;;;;;23.10;11.18;;;;;;;25.63;45.12;99368.84;5133133;27;20485;-72
2022/07/24 00:33:21;;;;;;;19.02;10.45;;;;;;;25.51;45.58;99365.38;5111917;27;20492;-72
2022/07/24 00:35:47;;;;;;;17.85;9.93;;;;;;;25.31;45.34;99355.97;5126170;27;20106;-72
2022/07/24 00:38:12;;;;;;;21.38;10.35;;;;;;;25.51;45.30;99362.53;5133226;27;20061;-73
2022/07/24 00:40:38;;;;;;;17.77;9.80;;;;;;;25.81;44.55;99361.94;5097812;28;20019;-72
2022/07/24 00:43:04;;;;;;;22.45;10.55;;;;;;;25.81;44.83;99362.72;5095464;27;20039;-73
2022/07/24 00:45:29;;;;;;;27.80;11.25;;;;;;;25.36;45.08;99350.56;5112085;28;20486;-73
2022/07/24 00:47:55;;;;;;;18.30;11.60;;;;;;;25.46;44.58;99359.34;5112377;28;20401;-72
2022/07/24 00:50:21;;;;;;;19.90;11.13;;;;;;;25.04;45.02;99354.03;5093029;28;20164;-72
2022/07/24 00:52:47;;;;;;;22.95;11.32;;;;;;;24.22;46.81;99350.06;5094102;28;20110;-73
2022/07/24 00:55:13;;;;;;;20.80;10.65;;;;;;;24.56;46.02;99356.09;5093893;28;20074;-72
2022/07/24 00:57:38;;;;;;;29.33;11.00;;;;;;;24.43;46.07;99356.69;5112052;28;20110;-73
2022/07/24 01:00:06;;;;;;;18.13;10.65;;;;;;;24.47;45.30;99368.88;5108614;28;20099;-73
2022/07/24 01:02:38;;;;;;;22.33;11.02;;;;;;;23.89;46.62;99361.16;5102636;28;20028;-72
2022/07/24 01:05:04;;;;;;;19.65;10.50;;;;;;;23.68;47.54;99363.06;5111832;28;20107;-73
2022/07/24 01:07:31;;;;;;;16.85;11.40;;;;;;;23.05;48.81;99363.38;5094054;28;20043;-72
2022/07/24 01:09:56;;;;;;;29.73;11.73;;;;;;;23.14;48.22;99355.91;5094142;28;20504;-72
2022/07/24 01:12:22;;;;;;;25.42;10.50;;;;;;;22.64;49.35;99365.78;5094417;28;20496;-72
2022/07/24 01:14:48;;;;;;;18.92;11.20;;;;;;;22.69;49.02;99361.69;5091764;28;20113;-72
2022/07/24 01:17:13;;;;;;;19.45;11.52;;;;;;;22.70;49.09;99358.41;5102101;28;20035;-72
2022/07/24 01:19:39;;;;;;;25.50;10.70;;;;;;;22.47;49.64;99356.13;5112100;28;20401;-72
2022/07/24 01:22:04;;;;;;;20.20;10.75;;;;;;;22.52;49.56;99352.06;5093643;28;20080;-73
2022/07/24 01:24:30;;;;;;;16.67;10.32;;;;;;;22.61;49.26;99348.72;5112134;28;20031;-72
2022/07/24 01:26:55;;;;;;;19.13;10.45;;;;;;;22.91;48.35;99353.72;5093444;28;20123;-72
2022/07/24 01:29:21;;;;;;;27.98;11.60;;;;;;;23.00;48.15;99356.06;5112143;28;20024;-73
2022/07/24 01:31:47;;;;;;;17.60;10.73;;;;;;;23.23;48.24;99360.31;5112078;28;20470;-73
2022/07/24 01:34:12;;;;;;;13.20;9.65;;;;;;;23.50;47.55;99342.50;5096367;28;20068;-72
2022/07/24 01:36:38;;;;;;;22.02;10.95;;;;;;;23.68;47.93;99347.97;5132138;28;20061;-73
2022/07/24 01:39:04;;;;;;;19.95;11.07;;;;;;;23.63;48.30;99357.81;5132343;28;20046;-73
2022/07/24 01:41:30;;;;;;;25.75;10.93;;;;;;;23.02;50.09;99347.91;5121730;28;20027;-72
2022/07/24 01:43:55;;;;;;;32.25;10.80;;;;;;;22.83;50.53;99350.16;5112067;28;20020;-73
2022/07/24 01:46:21;;;;;;;17.33;10.52;;;;;;;22.66;51.40;99349.06;5093568;28;20413;-72
2022/07/24 01:48:46;;;;;;;23.00;11.30;;;;;;;22.53;51.89;99356.53;5111968;28;20027;-72
2022/07/24 01:51:12;;;;;;;16.42;10.27;;;;;;;22.40;52.35;99351.31;5111740;28;20480;-73
2022/07/24 01:53:37;;;;;;;23.27;12.40;;;;;;;22.46;51.85;99353.69;5111738;28;20517;-72
2022/07/24 01:56:03;;;;;;;19.95;11.15;;;;;;;22.00;51.63;99357.28;5116021;28;20034;-72
2022/07/24 01:58:29;;;;;;;26.27;11.60;;;;;;;21.63;52.52;99357.84;5123379;27;20032;-72
2022/07/24 02:00:55;;;;;;;24.67;10.65;;;;;;;21.61;52.60;99352.59;5101433;28;20098;-77
2022/07/24 02:03:21;;;;;;;21.42;12.43;;;;;;;21.32;53.60;99364.06;5108868;27;20030;-73
2022/07/24 02:05:46;;;;;;;23.27;12.13;;;;;;;21.13;54.50;99359.66;5108083;27;20024;-72
2022/07/24 02:08:12;;;;;;;18.23;11.02;;;;;;;20.97;55.14;99348.72;5097697;27;20043;-70
2022/07/24 02:10:38;;;;;;;33.60;13.57;;;;;;;21.16;54.83;99359.66;5094852;28;20413;-72
2022/07/24 02:13:04;;;;;;;22.45;11.10;;;;;;;21.20;54.53;99344.59;5110149;27;20088;-74
2022/07/24 02:15:30;;;;;;;27.05;11.20;;;;;;;21.05;54.69;99350.34;5108145;27;20032;-72
2022/07/24 02:17:58;;;;;;;24.70;11.35;;;;;;;20.95;54.69;99339.78;5076059;28;20479;-75
2022/07/24 02:20:24;;;;;;;31.55;11.60;;;;;;;21.06;54.07;99345.44;5094116;28;20179;-73
2022/07/24 02:22:49;;;;;;;18.48;10.52;;;;;;;20.95;54.15;99351.16;5094187;28;20502;-72
2022/07/24 02:25:15;;;;;;;18.70;12.02;;;;;;;20.84;54.62;99352.00;5094014;28;20020;-71
2022/07/24 02:27:41;;;;;;;17.70;10.65;;;;;;;20.80;54.52;99338.97;5099031;27;20120;-73
2022/07/24 02:30:10;;;;;;;24.85;11.88;;;;;;;20.89;54.19;99354.44;5096712;28;20059;-72
2022/07/24 02:32:35;;;;;;;21.60;11.57;;;;;;;20.81;54.40;99346.28;5114676;28;20023;-73
2022/07/24 02:35:01;;;;;;;42.13;13.77;;;;;;;20.65;55.09;99343.88;5114948;27;20016;-71
2022/07/24 02:37:26;;;;;;;25.20;12.05;;;;;;;20.58;55.34;99348.34;5114857;28;20031;-71
2022/07/24 02:39:52;;;;;;;24.65;11.80;;;;;;;20.47;55.43;99358.88;5096512;28;20462;-73
2022/07/24 02:42:17;;;;;;;27.30;12.45;;;;;;;20.33;56.12;99357.69;5114681;27;20019;-73
2022/07/24 02:44:43;;;;;;;24.98;12.70;;;;;;;20.54;55.36;99352.41;5114728;28;20098;-73
2022/07/24 02:47:08;;;;;;;24.67;12.82;;;;;;;20.29;56.20;99356.88;5096358;28;20102;-73
2022/07/24 02:49:35;;;;;;;25.67;11.10;;;;;;;20.30;56.24;99347.13;5114863;27;20023;-71
2022/07/24 02:52:02;;;;;;;17.75;11.43;;;;;;;20.18;56.14;99351.16;5114629;28;20022;-72
2022/07/24 02:54:27;;;;;;;27.40;12.27;;;;;;;20.06;56.71;99357.22;5114420;28;20401;-72
2022/07/24 02:56:53;;;;;;;23.35;11.40;;;;;;;19.75;57.83;99354.69;5095536;28;20016;-72
2022/07/24 02:59:18;;;;;;;26.27;13.02;;;;;;;19.75;58.20;99356.75;5114787;28;20024;-73
2022/07/24 03:01:44;;;;;;;25.23;14.73;;;;;;;19.67;58.37;99360.75;5114373;27;20020;-74
2022/07/24 03:04:09;;;;;;;18.90;12.23;;;;;;;19.63;58.33;99361.56;5114124;28;20047;-72
2022/07/24 03:06:35;;;;;;;21.17;12.88;;;;;;;19.41;58.92;99352.13;5113677;28;20019;-78
2022/07/24 03:09:01;;;;;;;22.95;12.63;;;;;;;19.37;58.85;99354.16;5122610;27;20027;-72
2022/07/24 03:11:27;;;;;;;37.70;18.98;;;;;;;19.47;58.57;99359.06;5113522;27;20028;-71
2022/07/24 03:13:52;;;;;;;31.58;17.42;;;;;;;19.55;58.56;99354.22;5093674;28;20531;-73
2022/07/24 03:16:18;;;;;;;38.42;13.98;;;;;;;19.52;58.16;99348.53;5130015;27;20114;-74
2022/07/24 03:18:48;;;;;;;35.95;14.13;;;;;;;19.63;57.78;99355.06;5134310;27;20027;-73
2022/07/24 03:21:17;;;;;;;30.02;13.88;;;;;;;19.70;57.30;99354.28;5133655;27;20023;-74
2022/07/24 03:23:43;;;;;;;26.80;14.77;;;;;;;19.59;57.14;99342.91;5134064;27;20038;-75
2022/07/24 03:26:09;;;;;;;29.30;17.20;;;;;;;19.66;57.14;99348.56;5114260;27;20089;-73
2022/07/24 03:28:35;;;;;;;32.85;19.48;;;;;;;19.64;57.17;99348.19;5094869;27;20522;-76
2022/07/24 03:31:01;;;;;;;25.20;15.15;;;;;;;19.71;56.89;99338.88;5092719;28;20486;-73
2022/07/24 03:33:27;;;;;;;26.27;12.90;;;;;;;19.94;56.47;99347.09;5074679;28;20031;-73
2022/07/24 03:35:53;;;;;;;27.10;13.30;;;;;;;20.02;56.28;99354.38;5092640;28;20479;-74
2022/07/24 03:38:19;;;;;;;23.65;13.73;;;;;;;20.02;56.21;99339.38;5091371;27;20023;-74
2022/07/24 03:40:44;;;;;;;29.70;19.45;;;;;;;19.85;56.70;99360.81;5110302;28;20031;-73
2022/07/24 03:43:10;;;;;;;28.98;15.02;;;;;;;19.95;56.37;99353.56;5103083;27;20397;-73
2022/07/24 03:45:35;;;;;;;32.90;14.05;;;;;;;20.07;56.06;99350.34;5098178;28;20020;-77
2022/07/24 03:48:01;;;;;;;34.22;11.88;;;;;;;19.97;56.30;99362.47;5086480;28;20062;-74
2022/07/24 03:50:26;;;;;;;30.10;11.77;;;;;;;19.75;57.00;99357.53;5116785;27;20534;-72
2022/07/24 03:52:52;;;;;;;24.08;12.10;;;;;;;19.74;57.41;99367.25;5115374;27;20020;-72
2022/07/24 03:55:18;;;;;;;34.38;12.73;;;;;;;19.60;57.88;99367.22;5111407;27;20038;-71
2022/07/24 03:57:43;;;;;;;26.73;12.48;;;;;;;19.70;58.00;99355.09;5129042;27;20015;-74
2022/07/24 04:00:09;;;;;;;28.98;12.85;;;;;;;19.77;57.98;99360.78;5113860;27;20022;-74
2022/07/24 04:02:35;;;;;;;28.58;12.75;;;;;;;19.70;58.58;99357.94;5095216;28;20020;-74
2022/07/24 04:05:00;;;;;;;24.35;13.38;;;;;;;19.59;59.35;99363.56;5110692;28;20659;-73
2022/07/24 04:07:26;;;;;;;24.75;11.85;;;;;;;19.77;59.26;99374.16;5104578;28;20016;-74
2022/07/24 04:09:51;;;;;;;22.60;12.23;;;;;;;19.74;59.32;99372.94;5098819;27;20402;-73
2022/07/24 04:12:17;;;;;;;21.27;12.70;;;;;;;19.71;59.50;99356.72;5072834;28;20031;-72
2022/07/24 04:14:43;;;;;;;22.65;13.00;;;;;;;19.74;59.32;99360.78;5091272;28;20486;-73
2022/07/24 04:17:08;;;;;;;57.83;32.80;;;;;;;20.00;58.98;99364.53;5090963;27;20036;-73
2022/07/24 04:19:34;;;;;;;39.72;19.83;;;;;;;20.13;58.30;99364.94;5098260;28;20023;-72
2022/07/24 04:21:59;;;;;;;23.63;12.02;;;;;;;20.30;57.14;99354.81;5079833;28;20077;-73
2022/07/24 04:24:25;;;;;;;26.55;12.30;;;;;;;20.56;56.17;99365.00;5098716;27;20389;-73
2022/07/24 04:26:51;;;;;;;46.58;22.33;;;;;;;20.60;55.40;99360.09;5118480;27;20030;-72
2022/07/24 04:29:16;;;;;;;33.75;15.60;;;;;;;20.71;55.37;99339.41;5096910;28;20035;-73
2022/07/24 04:31:41;;;;;;;22.98;12.23;;;;;;;20.93;55.10;99359.31;5112020;28;20027;-73
2022/07/24 04:34:07;;;;;;;24.30;11.73;;;;;;;21.10;54.88;99366.97;5099995;27;20102;-73
2022/07/24 04:36:32;;;;;;;24.20;11.32;;;;;;;21.34;54.35;99361.63;5091505;28;20016;-74
2022/07/24 04:38:58;;;;;;;21.38;12.30;;;;;;;21.63;53.54;99358.69;5074742;28;20445;-73
2022/07/24 04:41:23;;;;;;;18.92;12.63;;;;;;;21.72;53.43;99352.56;5099446;28;20107;-75
2022/07/24 04:43:49;;;;;;;35.88;17.45;;;;;;;21.91;53.31;99359.75;5107640;28;20540;-73
2022/07/24 04:46:16;;;;;;;37.67;19.00;;;;;;;22.15;52.81;99360.03;5091497;28;20039;-73
2022/07/24 04:48:41;;;;;;;35.63;19.80;;;;;;;22.29;52.11;99359.91;5073234;28;20019;-73
2022/07/24 04:51:07;;;;;;;44.67;17.08;;;;;;;22.46;51.57;99354.53;5115014;27;20027;-73
2022/07/24 04:53:32;;;;;;;34.28;15.93;;;;;;;22.56;51.53;99358.53;5089159;28;20053;-73
2022/07/24 04:55:58;;;;;;;27.20;15.07;;;;;;;22.76;51.28;99355.09;5085056;28;20116;-76
2022/07/24 04:58:25;;;;;;;26.73;12.30;;;;;;;23.02;50.50;99364.22;5075679;28;20024;-76
2022/07/24 05:00:50;;;;;;;25.58;12.75;;;;;;;23.20;50.04;99359.13;5096135;28;20020;-76
2022/07/24 05:03:16;;;;;;;24.13;12.60;;;;;;;23.40;49.53;99361.38;5106882;28;20028;-74
2022/07/24 05:05:41;;;;;;;24.77;11.45;;;;;;;23.37;49.38;99370.78;5100048;28;20043;-76
2022/07/24 05:08:06;;;;;;;26.90;11.23;;;;;;;23.20;48.83;99366.88;5081087;28;20070;-76
2022/07/24 05:10:32;;;;;;;21.50;11.05;;;;;;;23.22;49.09;99364.41;5092125;28;20020;-74
2022/07/24 05:12:57;;;;;;;19.15;10.48;;;;;;;23.31;48.51;99358.22;5091973;28;20078;-73
2022/07/24 05:15:23;;;;;;;21.08;11.48;;;;;;;23.11;48.30;99356.78;5098972;28;20023;-73
2022/07/24 05:17:48;;;;;;;20.35;10.23;;;;;;;23.36;47.97;99357.75;5112062;28;20465;-73
2022/07/24 05:20:14;;;;;;;15.50;8.50;;;;;;;23.52;47.40;99351.44;5132053;28;20405;-74
2022/07/24 05:22:39;;;;;;;18.58;9.68;;;;;;;23.75;46.76;99347.06;5131918;28;20054;-74
2022/07/24 05:25:05;;;;;;;19.60;9.10;;;;;;;23.74;45.66;99343.41;5103298;28;20115;-74
2022/07/24 05:27:31;;;;;;;16.58;8.23;;;;;;;23.69;46.14;99343.88;5092384;28;20030;-74
2022/07/24 05:29:56;;;;;;;27.58;10.90;;;;;;;23.73;46.24;99344.66;5100432;28;20095;-73
2022/07/24 05:32:22;;;;;;;23.83;8.80;;;;;;;23.87;46.77;99349.34;5098822;27;20027;-75
2022/07/24 05:34:47;;;;;;;15.93;9.30;;;;;;;23.82;45.59;99338.41;5106194;28;20024;-74
2022/07/24 05:37:13;;;;;;;22.77;10.52;;;;;;;24.10;45.75;99337.22;5097070;27;20034;-78
2022/07/24 05:39:38;;;;;;;27.88;8.88;;;;;;;24.45;44.67;99325.63;5115050;28;20619;-72
2022/07/24 05:42:04;;;;;;;17.77;9.27;;;;;;;24.53;43.89;99332.84;5099518;28;20494;-74
2022/07/24 05:44:30;;;;;;;21.20;9.65;;;;;;;24.78;43.78;99340.22;5108801;27;20027;-73
2022/07/24 05:46:55;;;;;;;16.88;9.95;;;;;;;24.81;43.73;99339.31;5118200;27;20019;-79
2022/07/24 05:49:21;;;;;;;27.13;10.57;;;;;;;24.89;43.96;99328.56;5090933;28;20027;-79
2022/07/24 05:51:46;;;;;;;18.52;9.60;;;;;;;24.92;43.84;99335.47;5107517;28;20023;-77
2022/07/24 05:54:12;;;;;;;17.90;9.45;;;;;;;24.78;45.27;99340.22;5100691;27;20110;-74
2022/07/24 05:56:37;;;;;;;21.35;9.57;;;;;;;25.04;44.48;99329.09;5110506;27;20175;-73
2022/07/24 05:59:03;;;;;;;22.05;9.93;;;;;;;25.33;43.98;99327.72;5103638;27;20027;-72
2022/07/24 06:01:28;;;;;;;14.95;9.90;;;;;;;24.97;44.16;99329.22;5106561;27;20032;-71
2022/07/24 06:03:54;;;;;;;25.90;9.43;;;;;;;24.84;44.62;99319.66;5109838;28;20048;-72
2022/07/24 06:06:20;;;;;;;23.02;10.75;;;;;;;25.11;44.76;99321.63;5105695;27;20016;-72
2022/07/24 06:08:45;;;;;;;23.52;11.13;;;;;;;25.30;44.19;99332.28;5112454;27;20050;-75
2022/07/24 06:11:11;;;;;;;25.95;10.10;;;;;;;25.18;43.54;99328.03;5084293;28;20024;-72
2022/07/24 06:13:37;;;;;;;21.40;9.48;;;;;;;25.11;43.42;99335.94;5117355;27;20016;-71
2022/07/24 06:16:03;;;;;;;20.92;8.82;;;;;;;25.19;43.56;99335.34;5116189;27;20708;-71
2022/07/24 06:18:28;;;;;;;23.80;9.13;;;;;;;25.49;43.97;99335.59;5093078;27;20031;-72
2022/07/24 06:20:54;;;;;;;21.10;8.95;;;;;;;25.67;44.10;99325.81;5095575;28;20035;-73
2022/07/24 06:23:19;;;;;;;43.08;10.80;;;;;;;25.81;43.07;99314.03;5090099;27;20093;-77
2022/07/24 06:25:45;;;;;;;14.55;9.63;;;;;;;25.53;43.44;99319.16;5125228;27;20097;-71
2022/07/24 06:28:10;;;;;;;14.57;8.80;;;;;;;25.72;43.60;99319.59;5110472;27;20031;-68
2022/07/24 06:30:35;;;;;;;18.08;8.38;;;;;;;25.74;43.06;99317.06;5084955;28;20019;-73
2022/07/24 06:33:01;;;;;;;15.68;9.98;;;;;;;25.88;44.12;99305.28;5114760;28;20458;-75
2022/07/24 06:35:28;;;;;;;17.25;8.90;;;;;;;26.23;43.58;99313.50;5109215;27;20096;-72
2022/07/24 06:37:55;;;;;;;13.95;9.23;;;;;;;26.44;42.59;99306.44;5110186;27;20028;-73
2022/07/24 06:40:21;;;;;;;22.17;10.55;;;;;;;26.47;42.74;99317.00;5118937;27;20019;-73
2022/07/24 06:42:48;;;;;;;15.82;9.20;;;;;;;26.61;42.76;99309.28;5084420;28;20516;-72
2022/07/24 06:45:14;;;;;;;16.48;9.60;;;;;;;26.79;41.98;99300.19;5116057;27;20447;-79
2022/07/24 06:47:41;;;;;;;24.40;11.63;;;;;;;26.59;41.89;99294.59;5091986;28;20032;-76
2022/07/24 06:50:07;;;;;;;15.05;9.48;;;;;;;26.85;42.43;99292.66;5113971;27;20027;-75
2022/07/24 06:52:33;;;;;;;17.40;9.32;;;;;;;26.97;41.39;99307.53;5115970;27;20107;-78
2022/07/24 06:54:58;;;;;;;16.25;8.35;;;;;;;26.57;41.47;99291.38;5111475;27;20115;-75
2022/07/24 06:57:25;;;;;;;13.52;8.63;;;;;;;26.85;41.66;99288.97;5112339;27;20489;-74
2022/07/24 06:59:52;;;;;;;13.15;9.00;;;;;;;26.80;40.67;99298.16;5129760;27;20073;-75
2022/07/24 07:02:19;;;;;;;18.10;8.90;;;;;;;27.08;41.19;99287.16;5122572;27;20028;-76
2022/07/24 07:04:44;;;;;;;42.58;9.88;;;;;;;26.97;39.84;99294.00;5126384;27;20048;-75
2022/07/24 07:07:10;;;;;;;14.30;7.57;;;;;;;27.10;40.09;99281.75;5096984;28;20085;-75
2022/07/24 07:09:35;;;;;;;15.90;7.95;;;;;;;27.65;38.97;99289.63;5090055;28;20382;-76
2022/07/24 07:12:03;;;;;;;17.67;8.30;;;;;;;27.89;38.55;99287.22;5115244;27;20051;-75
2022/07/24 07:14:28;;;;;;;16.50;8.38;;;;;;;27.85;38.56;99272.16;5112388;27;20095;-74
2022/07/24 07:16:53;;;;;;;13.18;8.10;;;;;;;27.52;38.65;99283.81;5131352;27;20023;-74
2022/07/24 07:19:19;;;;;;;17.35;7.88;;;;;;;27.89;38.20;99279.41;5126835;27;20051;-75
2022/07/24 07:21:44;;;;;;;15.52;7.53;;;;;;;28.13;37.82;99279.06;5088254;28;20394;-74
2022/07/24 07:24:10;;;;;;;12.45;8.48;;;;;;;28.41;37.39;99279.38;5113628;28;20023;-74
2022/07/24 07:26:36;;;;;;;12.68;8.00;;;;;;;28.41;36.34;99276.50;5088290;28;20514;-73
2022/07/24 07:29:03;;;;;;;12.77;8.30;;;;;;;28.70;36.53;99271.81;5122541;27;20084;-73
2022/07/24 07:31:29;;;;;;;12.43;7.25;;;;;;;29.02;36.06;99264.09;5107292;27;20493;-73
2022/07/24 07:33:54;;;;;;;16.65;8.10;;;;;;;29.17;35.74;99255.75;5120060;27;20023;-75
2022/07/24 07:36:20;;;;;;;16.05;8.48;;;;;;;28.98;36.08;99264.25;5087847;28;20574;-78
2022/07/24 07:38:45;;;;;;;16.95;7.63;;;;;;;29.26;35.59;99270.22;5109315;27;20030;-76
2022/07/24 07:41:11;;;;;;;20.83;8.85;;;;;;;29.40;34.99;99253.66;5107554;27;20020;-75
2022/07/24 07:43:38;;;;;;;15.20;8.00;;;;;;;29.51;34.89;99259.81;5133962;27;20553;-77
2022/07/24 07:46:04;;;;;;;10.32;7.20;;;;;;;29.78;34.45;99266.22;5104426;27;20064;-76
2022/07/24 07:48:30;;;;;;;26.58;8.15;;;;;;;29.73;35.09;99264.75;5113387;27;20402;-78
2022/07/24 07:50:56;;;;;;;16.38;7.15;;;;;;;29.60;34.20;99249.63;5081539;28;20024;-75
2022/07/24 07:53:21;;;;;;;11.63;7.32;;;;;;;29.97;35.00;99262.09;5095808;28;20032;-77
2022/07/24 07:55:51;;;;;;;14.48;7.30;;;;;;;30.40;34.42;99259.53;5071296;28;20024;-75
2022/07/24 07:58:19;;;;;;;17.15;7.60;;;;;;;30.72;34.11;99259.44;5088095;28;20754;-74
2022/07/24 08:00:45;;;;;;;18.05;7.40;;;;;;;30.65;32.91;99257.69;5092979;28;20032;-76
2022/07/24 08:03:10;;;;;;;19.48;9.18;;;;;;;30.23;33.28;99247.50;5093771;28;20147;-76
2022/07/24 08:05:36;;;;;;;25.15;9.32;;;;;;;30.23;34.86;99255.34;5083377;27;20045;-74
2022/07/24 08:08:04;;;;;;;20.35;8.18;;;;;;;30.82;34.20;99249.47;5101275;28;20081;-74
2022/07/24 08:10:30;;;;;;;34.13;9.13;;;;;;;30.84;33.34;99246.13;5092761;28;20097;-74
2022/07/24 08:12:55;;;;;;;12.77;8.35;;;;;;;30.64;33.94;99241.63;5097933;27;20035;-73
2022/07/24 08:15:21;;;;;;;11.30;7.65;;;;;;;30.60;33.10;99238.06;5116651;27;20028;-69
2022/07/24 08:17:55;;;;;;;16.60;7.95;;;;;;;31.02;33.07;99250.31;5093027;28;20550;-70
2022/07/24 08:20:21;;;;;;;13.70;7.63;;;;;;;31.08;32.54;99245.47;5114290;27;20030;-76
2022/07/24 08:22:47;;;;;;;36.15;9.30;;;;;;;30.79;32.65;99244.69;5106784;27;20106;-73
2022/07/24 08:25:12;;;;;;;17.25;8.27;;;;;;;31.07;32.22;99229.44;5089580;28;20164;-71
2022/07/24 08:27:38;;;;;;;11.77;7.40;;;;;;;31.18;32.03;99238.41;5094204;28;20020;-72
2022/07/24 08:30:08;;;;;;;22.48;9.43;;;;;;;30.98;32.28;99240.97;5113614;27;20662;-72
2022/07/24 08:32:34;;;;;;;29.45;15.48;;;;;;;31.00;32.47;99236.34;5125104;27;20509;-72
2022/07/24 08:34:59;;;;;;;23.55;8.20;;;;;;;30.89;32.05;99236.03;5103789;28;20027;-73
2022/07/24 08:37:25;;;;;;;13.48;7.32;;;;;;;31.16;32.32;99225.72;5125652;27;20019;-72
2022/07/24 08:39:50;;;;;;;12.63;7.80;;;;;;;31.74;32.24;99231.69;5093948;28;20069;-72
2022/07/24 08:42:15;;;;;;;12.60;7.47;;;;;;;32.00;31.35;99226.28;5116592;27;20496;-75
2022/07/24 08:44:41;;;;;;;19.90;7.93;;;;;;;32.19;30.93;99234.84;5119159;27;20419;-71
2022/07/24 08:47:10;;;;;;;16.10;7.20;;;;;;;32.06;31.53;99226.41;5087829;28;20378;-71
2022/07/24 08:49:37;;;;;;;11.60;7.53;;;;;;;32.25;30.39;99215.53;5111679;27;20432;-71
2022/07/24 08:52:08;;;;;;;12.07;7.30;;;;;;;31.55;31.17;99223.06;5111722;28;20088;-71
2022/07/24 08:54:35;;;;;;;15.45;7.85;;;;;;;31.57;30.98;99226.28;5093670;28;20031;-71
2022/07/24 08:57:02;;;;;;;11.27;7.40;;;;;;;31.86;30.29;99221.22;5118279;27;20142;-71
2022/07/24 08:59:28;;;;;;;25.00;7.75;;;;;;;32.35;30.19;99211.31;5108898;28;20556;-71
2022/07/24 09:01:54;;;;;;;18.50;8.45;;;;;;;32.71;30.47;99210.72;5109231;28;20173;-71
2022/07/24 09:04:35;;;;;;;13.98;7.70;;;;;;;32.95;30.02;99207.00;5106490;28;20094;-71
2022/07/24 09:07:07;;;;;;;15.88;7.70;;;;;;;33.13;29.75;99206.78;5092922;28;20020;-71
2022/07/24 09:09:34;;;;;;;23.60;8.80;;;;;;;32.72;29.05;99201.53;5093158;28;20036;-71
2022/07/24 09:12:17;;;;;;;24.33;9.38;;;;;;;32.90;30.31;99200.59;5078240;28;20089;-72
2022/07/24 09:14:45;;;;;;;18.08;8.20;;;;;;;33.31;29.44;99205.78;5105759;28;20024;-72
2022/07/24 09:17:14;;;;;;;32.05;8.52;;;;;;;33.25;28.50;99189.63;5104853;28;20028;-72
2022/07/24 09:20:00;;;;;;;23.92;8.68;;;;;;;32.86;27.98;99193.34;5093083;28;20050;-73
2022/07/24 09:22:35;;;;;;;10.25;7.72;;;;;;;33.46;28.81;99200.03;5111290;28;20020;-71
2022/07/24 09:25:16;;;;;;;19.77;8.35;;;;;;;33.72;28.77;99196.47;5111356;28;20030;-71
2022/07/24 09:27:59;;;;;;;30.92;9.77;;;;;;;33.60;28.27;99183.13;5103834;28;20649;-73
2022/07/24 09:30:28;;;;;;;13.07;8.32;;;;;;;33.91;28.71;99187.53;5080405;28;20064;-75
2022/07/24 09:33:05;;;;;;;12.50;8.25;;;;;;;33.80;28.17;99190.28;5103558;28;20034;-75
2022/07/24 09:35:33;;;;;;;40.63;9.88;;;;;;;33.99;27.67;99190.84;5105588;28;20038;-72
2022/07/24 09:38:00;;;;;;;12.32;7.75;;;;;;;32.96;28.30;99177.53;5107082;28;20496;-74
2022/07/24 09:40:32;;;;;;;25.85;8.32;;;;;;;33.64;28.05;99180.78;5083030;28;20146;-74
2022/07/24 09:43:28;;;;;;;15.48;7.72;;;;;;;33.95;27.90;99176.53;5099805;28;20023;-76
2022/07/24 09:46:00;;;;;;;14.07;7.75;;;;;;;33.67;27.51;99174.00;5097488;28;20562;-73
2022/07/24 09:48:28;;;;;;;14.15;8.35;;;;;;;34.04;27.25;99175.59;5116321;28;20028;-75
2022/07/24 09:50:56;;;;;;;19.85;8.38;;;;;;;34.21;27.52;99164.22;5116947;28;20027;-76
2022/07/24 09:53:30;;;;;;;16.98;8.30;;;;;;;34.40;27.56;99175.56;5091185;28;20028;-73
2022/07/24 09:56:08;;;;;;;12.88;7.38;;;;;;;34.72;27.42;99172.78;5111856;28;20035;-75
2022/07/24 09:58:37;;;;;;;33.03;8.38;;;;;;;34.04;28.00;99164.00;5093314;28;20024;-74
2022/07/24 10:01:05;;;;;;;12.63;7.72;;;;;;;34.42;27.73;99158.44;5092083;28;20050;-74
2022/07/24 10:03:32;;;;;;;13.82;7.75;;;;;;;34.76;27.48;99160.94;5114386;28;20028;-74
2022/07/24 10:06:01;;;;;;;15.57;7.68;;;;;;;34.98;26.18;99157.44;5105245;28;20081;-74
2022/07/24 10:08:28;;;;;;;12.55;8.00;;;;;;;35.10;25.86;99159.19;5098438;28;20027;-73
2022/07/24 10:10:54;;;;;;;14.02;7.43;;;;;;;35.37;25.42;99144.63;5107349;28;20031;-74
2022/07/24 10:13:20;;;;;;;11.18;7.40;;;;;;;35.43;25.93;99142.56;5102409;28;20024;-74
2022/07/24 10:16:14;;;;;;;12.05;7.72;;;;;;;35.60;25.10;99145.63;5089160;28;20395;-73
2022/07/24 10:18:56;;;;;;;18.58;8.20;;;;;;;35.66;25.21;99143.53;5106397;28;20043;-74
2022/07/24 10:21:25;;;;;;;14.45;8.35;;;;;;;35.88;25.55;99129.63;5089399;28;20172;-74
2022/07/24 10:23:54;;;;;;;;;;;;;;;36.02;25.33;99136.59;5097612;27;20053;-74
2022/07/24 10:26:48;;;;;;;13.25;7.68;;;;;;;35.93;25.51;99134.72;5113481;27;19915;-76
2022/07/24 10:29:17;;;;;;;11.35;7.72;;;;;;;36.07;25.22;99130.03;5106150;28;20521;-74
2022/07/24 10:31:48;;;;;;;10.63;7.25;;;;;;;36.21;25.42;99128.25;5089655;28;20069;-74
2022/07/24 10:34:50;;;;;;;26.45;8.55;;;;;;;36.03;25.62;99124.44;5113786;28;20065;-74
2022/07/24 10:37:49;;;;;;;13.80;8.13;;;;;;;35.95;24.60;99121.22;5094273;28;20042;-77
2022/07/24 10:40:14;;;;;;;17.13;8.32;;;;;;;36.10;25.29;99118.16;5113977;27;20032;-76
2022/07/24 10:43:05;;;;;;;16.42;6.90;;;;;;;36.03;24.87;99117.81;5094622;28;20172;-77
2022/07/24 10:45:38;;;;;;;15.75;7.63;;;;;;;36.36;24.91;99114.28;5108908;28;20062;-76
2022/07/24 10:48:28;;;;;;;15.85;7.78;;;;;;;36.57;24.56;99122.84;5108746;28;20055;-76
2022/07/24 10:51:15;;;;;;;14.93;8.43;;;;;;;36.46;24.74;99114.84;5087445;28;20035;-77
2022/07/24 10:53:47;;;;;;;15.23;7.97;;;;;;;36.49;24.31;99107.16;5111140;28;20501;-77
2022/07/24 10:56:36;;;;;;;13.05;6.97;;;;;;;36.61;24.17;99108.81;5109165;28;20032;-76
2022/07/24 10:59:07;;;;;;;14.00;8.77;;;;;;;36.74;24.10;99104.59;5094883;28;20520;-77
2022/07/24 11:01:47;;;;;;;18.95;8.85;;;;;;;36.83;23.71;99091.91;5126615;27;20015;-78
2022/07/24 11:04:19;;;;;;;13.38;7.45;;;;;;;37.06;23.91;99095.63;5093081;28;20116;-76
2022/07/24 11:06:53;;;;;;;16.85;8.77;;;;;;;37.01;23.43;99096.41;5113108;28;20099;-77
2022/07/24 11:09:22;;;;;;;18.58;7.65;;;;;;;36.89;23.06;99086.88;5086932;28;20426;-77
2022/07/24 11:11:50;;;;;;;15.38;7.28;;;;;;;37.17;23.42;99074.47;5111316;27;20402;-77
2022/07/24 11:14:25;;;;;;;12.77;7.75;;;;;;;37.35;23.16;99076.81;5112925;28;20023;-76
2022/07/24 11:16:51;;;;;;;13.07;7.82;;;;;;;37.31;22.95;99076.28;5111331;28;20023;-77
2022/07/24 11:19:16;;;;;;;19.05;7.47;;;;;;;37.37;23.06;99074.16;5092700;28;20517;-77
2022/07/24 11:21:44;;;;;;;11.57;7.18;;;;;;;37.79;22.81;99062.66;5126032;27;20035;-77
2022/07/24 11:24:22;;;;;;;22.35;8.05;;;;;;;37.88;23.20;99052.81;5091649;28;20062;-77